createdAt,value
2019-02-02T00:01:53.772Z,14.95
2019-02-02T00:04:22.698Z,19.03
2019-02-02T00:07:27.133Z,18.97
2019-02-02T00:09:59.940Z,17.60
2019-02-02T00:15:30.217Z,16.40
2019-02-02T00:18:04.999Z,19.70
2019-02-02T00:21:15.234Z,22.23
2019-02-02T00:23:41.895Z,18.53
2019-02-02T00:26:17.843Z,19.50
2019-02-02T00:32:43.457Z,23.67
2019-02-02T00:35:24.935Z,17.93
2019-02-02T00:40:45.362Z,16.07
2019-02-02T00:43:13.784Z,14.93
2019-02-02T00:46:21.316Z,15.23
2019-02-02T00:48:49.778Z,16.70
2019-02-02T00:51:18.306Z,16.97
2019-02-02T00:53:46.712Z,15.57
2019-02-02T00:59:55.676Z,15.10
2019-02-02T01:02:24.017Z,16.20
2019-02-02T01:04:52.457Z,30.20
2019-02-02T01:07:20.871Z,17.17
2019-02-02T01:09:49.339Z,24.17
2019-02-02T01:12:17.863Z,24.00
2019-02-02T01:14:54.227Z,15.25
2019-02-02T01:17:22.650Z,20.35
2019-02-02T01:20:22.599Z,21.53
2019-02-02T01:22:51.597Z,16.77
2019-02-02T01:25:20.073Z,17.57
2019-02-02T01:28:24.289Z,17.23
2019-02-02T01:30:52.686Z,17.13
2019-02-02T01:34:03.963Z,18.23
2019-02-02T01:36:32.355Z,16.33
2019-02-02T01:39:03.719Z,13.57
2019-02-02T01:41:37.967Z,14.80
2019-02-02T01:44:06.254Z,14.37
2019-02-02T01:46:34.763Z,14.10
2019-02-02T01:49:09.297Z,14.53
2019-02-02T01:51:38.457Z,12.57
2019-02-02T01:54:46.141Z,12.07
2019-02-02T01:57:14.603Z,14.70
2019-02-02T01:59:43.036Z,14.17
2019-02-02T02:02:51.532Z,12.13
2019-02-02T02:05:19.985Z,12.07
2019-02-02T02:07:50.536Z,12.53
2019-02-02T02:10:27.416Z,12.80
2019-02-02T02:12:55.852Z,14.03
2019-02-02T02:16:06.820Z,14.23
2019-02-02T02:18:35.223Z,12.33
2019-02-02T02:21:03.697Z,12.60
2019-02-02T02:26:45.388Z,12.77
2019-02-02T02:29:14.104Z,16.03
2019-02-02T02:31:49.830Z,25.10
2019-02-02T02:34:18.166Z,37.80
2019-02-02T02:37:21.228Z,31.53
2019-02-02T02:39:49.547Z,14.33
2019-02-02T02:42:18.283Z,14.50
2019-02-02T02:45:30.726Z,11.87
2019-02-02T02:48:00.677Z,13.87
2019-02-02T02:50:30.552Z,17.23
2019-02-02T02:53:06.259Z,14.97
2019-02-02T02:55:34.614Z,12.07
2019-02-02T02:58:27.169Z,12.93
2019-02-02T03:00:55.752Z,14.23
2019-02-02T03:03:24.074Z,13.13
2019-02-02T03:06:35.500Z,12.13
2019-02-02T03:09:07.000Z,12.23
2019-02-02T03:11:35.410Z,10.47
2019-02-02T03:14:11.132Z,11.87
2019-02-02T03:16:39.574Z,14.17
2019-02-02T03:19:08.308Z,12.13
2019-02-02T03:21:36.778Z,12.67
2019-02-02T03:24:05.586Z,11.77
2019-02-02T03:26:34.055Z,12.07
2019-02-02T03:29:02.470Z,11.67
2019-02-02T03:31:30.958Z,13.73
2019-02-02T03:33:59.406Z,10.17
2019-02-02T03:36:27.740Z,12.00
2019-02-02T03:38:56.078Z,12.47
2019-02-02T03:41:24.984Z,11.22
2019-02-02T03:43:53.596Z,12.03
2019-02-02T03:46:21.939Z,13.50
2019-02-02T03:48:50.542Z,12.28
2019-02-02T03:51:18.947Z,14.80
2019-02-02T03:53:47.300Z,12.73
2019-02-02T03:56:15.631Z,13.30
2019-02-02T03:58:44.004Z,13.65
2019-02-02T04:01:12.403Z,17.65
2019-02-02T04:03:41.057Z,14.58
2019-02-02T04:06:09.490Z,13.13
2019-02-02T04:08:37.892Z,13.65
2019-02-02T04:11:06.349Z,15.05
2019-02-02T04:13:35.280Z,14.80
2019-02-02T04:16:03.690Z,15.48
2019-02-02T04:18:32.131Z,16.97
2019-02-02T04:21:00.613Z,17.10
2019-02-02T04:23:29.280Z,17.35
2019-02-02T04:25:58.844Z,15.65
2019-02-02T04:28:27.170Z,13.98
2019-02-02T04:30:55.602Z,18.92
2019-02-02T04:33:26.985Z,14.20
2019-02-02T04:35:55.321Z,18.48
2019-02-02T04:38:23.675Z,16.90
2019-02-02T04:40:54.809Z,17.62
2019-02-02T04:43:23.194Z,18.32
2019-02-02T04:45:51.521Z,16.62
2019-02-02T04:48:20.001Z,14.43
2019-02-02T04:50:48.328Z,15.60
2019-02-02T04:53:16.743Z,15.28
2019-02-02T04:55:45.230Z,17.80
2019-02-02T04:58:13.644Z,15.20
2019-02-02T05:00:42.724Z,14.07
2019-02-02T05:03:11.100Z,15.40
2019-02-02T05:05:40.332Z,13.75
2019-02-02T05:08:08.651Z,15.88
2019-02-02T05:10:37.458Z,14.73
2019-02-02T05:13:05.877Z,14.13
2019-02-02T05:15:34.237Z,19.10
2019-02-02T05:18:03.218Z,17.40
2019-02-02T05:20:31.650Z,17.95
2019-02-02T05:23:00.020Z,18.50
2019-02-02T05:25:28.671Z,19.27
2019-02-02T05:27:57.011Z,16.50
2019-02-02T05:30:26.834Z,18.48
2019-02-02T05:32:55.356Z,23.30
2019-02-02T05:35:23.726Z,18.95
2019-02-02T05:37:52.371Z,18.02
2019-02-02T05:40:21.134Z,19.52
2019-02-02T05:42:50.234Z,18.17
2019-02-02T05:45:19.435Z,16.10
2019-02-02T05:47:47.931Z,16.40
2019-02-02T05:50:17.483Z,16.95
2019-02-02T05:52:45.807Z,15.13
2019-02-02T05:55:15.039Z,17.67
2019-02-02T05:57:43.435Z,15.53
2019-02-02T06:00:15.107Z,14.83
2019-02-02T06:02:43.951Z,15.85
2019-02-02T06:05:12.356Z,13.98
2019-02-02T06:07:40.799Z,15.32
2019-02-02T06:10:10.787Z,12.68
2019-02-02T06:12:39.104Z,15.93
2019-02-02T06:15:07.564Z,15.60
2019-02-02T06:17:36.323Z,14.47
2019-02-02T06:20:08.755Z,13.68
2019-02-02T06:22:39.596Z,13.65
2019-02-02T06:25:09.449Z,14.95
2019-02-02T06:27:37.851Z,13.60
2019-02-02T06:30:08.250Z,17.20
2019-02-02T06:32:37.068Z,18.15
2019-02-02T06:35:06.859Z,20.72
2019-02-02T06:37:36.495Z,21.12
2019-02-02T06:40:05.787Z,16.75
2019-02-02T06:42:34.230Z,19.57
2019-02-02T06:45:03.188Z,18.40
2019-02-02T06:47:31.531Z,16.37
2019-02-02T06:49:59.911Z,21.20
2019-02-02T06:52:31.644Z,18.17
2019-02-02T06:55:00.296Z,16.30
2019-02-02T06:57:28.716Z,14.07
2019-02-02T06:59:58.703Z,15.78
2019-02-02T07:02:29.011Z,14.20
2019-02-02T07:04:57.156Z,18.95
2019-02-02T07:07:26.618Z,17.87
2019-02-02T07:09:55.315Z,17.35
2019-02-02T07:12:23.857Z,19.23
2019-02-02T07:14:52.255Z,20.27
2019-02-02T07:17:20.908Z,24.60
2019-02-02T07:19:49.323Z,23.80
2019-02-02T07:22:17.821Z,28.25
2019-02-02T07:24:46.203Z,18.23
2019-02-02T07:27:14.565Z,24.98
2019-02-02T07:29:43.004Z,26.48
2019-02-02T07:32:11.549Z,20.15
2019-02-02T07:34:45.920Z,21.33
2019-02-02T07:37:24.871Z,16.32
2019-02-02T07:39:53.573Z,17.67
2019-02-02T07:42:28.179Z,15.65
2019-02-02T07:44:58.343Z,16.93
2019-02-02T07:47:29.770Z,20.43
2019-02-02T07:50:01.265Z,22.42
2019-02-02T07:52:41.991Z,20.52
2019-02-02T07:55:19.276Z,17.90
2019-02-02T07:57:47.666Z,22.35
2019-02-02T08:00:18.400Z,22.95
2019-02-02T08:02:46.860Z,17.20
2019-02-02T08:05:15.201Z,16.80
2019-02-02T08:07:43.617Z,18.77
2019-02-02T08:10:12.802Z,18.15
2019-02-02T08:12:46.195Z,19.75
2019-02-02T08:15:24.731Z,18.07
2019-02-02T08:17:53.115Z,20.15
2019-02-02T08:20:21.580Z,17.48
2019-02-02T08:22:56.350Z,19.25
2019-02-02T08:25:26.786Z,16.00
2019-02-02T08:27:58.178Z,14.73
2019-02-02T08:30:28.214Z,16.70
2019-02-02T08:32:57.485Z,19.73
2019-02-02T08:35:25.819Z,20.63
2019-02-02T08:37:56.585Z,16.17
2019-02-02T08:40:25.031Z,18.30
2019-02-02T08:42:53.442Z,16.03
2019-02-02T08:45:22.298Z,21.27
2019-02-02T08:47:51.348Z,20.37
2019-02-02T08:50:20.984Z,18.27
2019-02-02T08:52:52.016Z,17.97
2019-02-02T08:55:20.452Z,17.37
2019-02-02T08:57:48.936Z,19.60
2019-02-02T09:00:20.504Z,18.67
2019-02-02T09:02:48.896Z,26.23
2019-02-02T09:05:18.738Z,22.73
2019-02-02T09:07:47.135Z,22.17
2019-02-02T09:10:19.565Z,19.33
2019-02-02T09:12:49.667Z,19.80
2019-02-02T09:15:18.531Z,21.50
2019-02-02T09:17:47.180Z,20.68
2019-02-02T09:20:15.744Z,18.90
2019-02-02T09:23:02.609Z,20.52
2019-02-02T09:25:18.932Z,20.48
2019-02-02T09:27:47.570Z,19.27
2019-02-02T09:30:20.461Z,18.17
2019-02-02T09:32:52.007Z,19.10
2019-02-02T09:35:20.560Z,15.87
2019-02-02T09:37:50.137Z,17.37
2019-02-02T09:40:21.241Z,18.53
2019-02-02T09:42:53.004Z,18.53
2019-02-02T09:45:24.476Z,19.80
2019-02-02T09:47:54.646Z,17.23
2019-02-02T09:50:24.146Z,18.23
2019-02-02T09:52:52.473Z,20.17
2019-02-02T09:55:23.040Z,17.10
2019-02-02T09:57:55.001Z,18.17
2019-02-02T10:00:26.223Z,15.63
2019-02-02T10:02:54.593Z,16.80
2019-02-02T10:05:23.270Z,20.63
2019-02-02T10:07:51.860Z,19.43
2019-02-02T10:10:21.504Z,18.23
2019-02-02T10:12:52.963Z,23.23
2019-02-02T10:15:22.122Z,22.57
2019-02-02T10:17:50.464Z,18.37
2019-02-02T10:20:19.699Z,20.60
2019-02-02T10:22:50.357Z,21.97
2019-02-02T10:25:20.538Z,19.67
2019-02-02T10:27:49.287Z,20.73
2019-02-02T10:30:22.880Z,25.90
2019-02-02T10:32:51.384Z,24.83
2019-02-02T10:35:19.866Z,21.87
2019-02-02T10:37:48.491Z,20.73
2019-02-02T10:40:16.833Z,20.53
2019-02-02T10:42:45.836Z,20.53
2019-02-02T10:45:16.142Z,23.87
2019-02-02T10:47:46.897Z,21.80
2019-02-02T10:50:23.186Z,23.30
2019-02-02T10:52:52.439Z,23.53
2019-02-02T10:55:20.873Z,25.17
2019-02-02T10:57:49.317Z,22.57
2019-02-02T11:00:25.058Z,21.77
2019-02-02T11:02:56.408Z,19.87
2019-02-02T11:05:24.917Z,27.83
2019-02-02T11:07:56.777Z,21.67
2019-02-02T11:10:31.578Z,20.50
2019-02-02T11:13:00.353Z,17.73
2019-02-02T11:15:28.778Z,18.13
2019-02-02T11:17:57.307Z,18.50
2019-02-02T11:20:31.695Z,18.00
2019-02-02T11:23:00.348Z,23.63
2019-02-02T11:25:31.537Z,28.17
2019-02-02T11:28:00.698Z,28.67
2019-02-02T11:30:29.922Z,21.87
2019-02-02T11:33:02.234Z,17.87
2019-02-02T11:35:31.236Z,16.30
2019-02-02T11:37:59.642Z,18.13
2019-02-02T11:40:30.647Z,17.63
2019-02-02T11:42:59.620Z,16.13
2019-02-02T11:45:31.215Z,14.67
2019-02-02T11:47:59.542Z,15.17
2019-02-02T11:50:28.009Z,16.87
2019-02-02T11:52:56.503Z,18.03
2019-02-02T11:55:27.535Z,15.87
2019-02-02T11:57:56.112Z,17.50
2019-02-02T12:00:33.478Z,17.03
2019-02-02T12:03:08.447Z,19.20
2019-02-02T12:05:37.023Z,17.37
2019-02-02T12:08:12.718Z,17.87
2019-02-02T12:10:41.707Z,19.00
2019-02-02T12:13:11.587Z,17.57
2019-02-02T12:15:42.791Z,17.50
2019-02-02T12:18:11.983Z,16.87
2019-02-02T12:20:42.127Z,19.90
2019-02-02T12:23:27.242Z,19.37
2019-02-02T12:25:55.411Z,19.50
2019-02-02T12:28:27.483Z,20.07
2019-02-02T12:31:21.181Z,19.60
2019-02-02T12:33:29.170Z,23.97
2019-02-02T12:35:57.733Z,26.20
2019-02-02T12:38:26.484Z,28.10
2019-02-02T12:40:54.869Z,29.53
2019-02-02T12:43:23.800Z,32.53
2019-02-02T12:45:52.210Z,35.43
2019-02-02T12:48:23.649Z,35.50
2019-02-02T12:50:53.016Z,37.00
2019-02-02T12:53:21.443Z,34.98
2019-02-02T12:55:50.807Z,34.60
2019-02-02T12:58:21.183Z,37.13
2019-02-02T13:00:49.365Z,43.90
2019-02-02T13:03:17.716Z,51.08
2019-02-02T13:05:51.551Z,51.25
2019-02-02T13:08:25.841Z,59.10
2019-02-02T13:10:56.427Z,63.03
2019-02-02T13:13:24.885Z,113.50
2019-02-02T13:15:53.449Z,50.83
2019-02-02T13:18:22.171Z,72.17
2019-02-02T13:20:53.382Z,53.33
2019-02-02T13:23:22.311Z,50.20
2019-02-02T13:25:50.635Z,45.67
2019-02-02T13:28:19.027Z,46.83
2019-02-02T13:30:48.399Z,46.95
2019-02-02T13:33:17.025Z,49.80
2019-02-02T13:35:48.743Z,58.85
2019-02-02T13:38:28.644Z,50.67
2019-02-02T13:40:59.191Z,62.43
2019-02-02T13:43:27.643Z,56.27
2019-02-02T13:45:56.298Z,78.85
2019-02-02T13:48:27.034Z,64.50
2019-02-02T13:50:55.794Z,85.12
2019-02-02T13:53:24.248Z,62.67
2019-02-02T13:55:52.791Z,83.00
2019-02-02T13:58:21.364Z,60.17
2019-02-02T14:00:49.832Z,63.75
2019-02-02T14:03:18.313Z,60.60
2019-02-02T14:05:47.007Z,46.28
2019-02-02T14:08:19.716Z,41.83
2019-02-02T14:10:48.319Z,36.20
2019-02-02T14:13:16.985Z,33.13
2019-02-02T14:15:45.456Z,35.30
2019-02-02T14:18:13.875Z,34.83
2019-02-02T14:20:42.668Z,36.57
2019-02-02T14:23:11.116Z,36.48
2019-02-02T14:25:42.425Z,30.82
2019-02-02T14:28:11.177Z,45.63
2019-02-02T14:30:47.072Z,28.27
2019-02-02T14:33:16.766Z,31.07
2019-02-02T14:35:47.422Z,30.35
2019-02-02T14:38:32.400Z,25.27
2019-02-02T14:41:00.843Z,23.60
2019-02-02T14:43:30.061Z,22.27
2019-02-02T14:45:59.397Z,23.38
2019-02-02T14:48:27.931Z,22.70
2019-02-02T14:51:00.788Z,24.87
2019-02-02T14:53:31.811Z,23.47
2019-02-02T14:56:03.467Z,20.37
2019-02-02T14:58:31.863Z,23.70
2019-02-02T15:01:07.283Z,25.10
2019-02-02T15:03:35.926Z,35.63
2019-02-02T15:06:04.520Z,27.73
2019-02-02T15:08:32.978Z,34.95
2019-02-02T15:11:04.237Z,23.47
2019-02-02T15:13:32.630Z,22.48
2019-02-02T15:16:02.924Z,22.13
2019-02-02T15:18:31.364Z,19.80
2019-02-02T15:21:25.251Z,24.85
2019-02-02T15:23:33.239Z,27.62
2019-02-02T15:29:15.679Z,25.00
2019-02-02T15:34:57.347Z,22.77
2019-02-02T15:40:58.462Z,26.68
2019-02-02T15:43:16.373Z,23.57
2019-02-02T15:45:44.870Z,23.83
2019-02-02T15:48:13.875Z,23.55
2019-02-02T15:51:15.937Z,27.55
2019-02-02T15:53:44.326Z,25.43
2019-02-02T15:56:55.443Z,25.43
2019-02-02T15:59:24.076Z,26.07
2019-02-02T16:01:52.613Z,26.90
2019-02-02T16:04:43.399Z,26.48
2019-02-02T16:07:14.639Z,27.93
2019-02-02T16:09:45.600Z,27.52
2019-02-02T16:12:15.897Z,27.50
2019-02-02T16:14:46.002Z,27.75
2019-02-02T16:18:01.305Z,28.25
2019-02-02T16:20:33.240Z,28.20
2019-02-02T16:26:24.616Z,33.33
2019-02-02T16:29:18.146Z,29.48
2019-02-02T16:31:56.457Z,23.98
2019-02-02T16:35:19.146Z,27.27
2019-02-02T16:37:52.675Z,28.95
2019-02-02T16:40:25.636Z,25.30
2019-02-02T16:43:01.215Z,29.18
2019-02-02T16:45:31.804Z,29.32
2019-02-02T16:48:40.263Z,25.30
2019-02-02T16:51:08.730Z,27.55
2019-02-02T16:56:53.188Z,28.95
2019-02-02T16:59:25.438Z,33.10
2019-02-02T17:02:38.894Z,26.73
2019-02-02T17:05:08.757Z,30.95
2019-02-02T17:10:50.469Z,33.15
2019-02-02T17:13:24.620Z,32.25
2019-02-02T17:15:53.184Z,33.40
2019-02-02T17:18:21.647Z,27.15
2019-02-02T17:21:05.479Z,32.30
2019-02-02T17:23:35.481Z,36.15
2019-02-02T17:26:04.556Z,30.65
2019-02-02T17:28:33.045Z,29.48
2019-02-02T17:31:23.978Z,38.15
2019-02-02T17:34:01.321Z,37.45
2019-02-02T17:39:43.323Z,31.52
2019-02-02T17:43:20.339Z,29.20
2019-02-02T17:44:48.151Z,32.00
2019-02-02T17:47:16.633Z,27.17
2019-02-02T17:53:00.703Z,29.12
2019-02-02T17:55:29.223Z,24.70
2019-02-02T17:58:41.889Z,32.83
2019-02-02T18:01:11.383Z,28.23
2019-02-02T18:04:39.103Z,26.10
2019-02-02T18:07:01.597Z,29.70
2019-02-02T18:09:30.224Z,24.67
2019-02-02T18:12:00.086Z,22.85
2019-02-02T18:14:28.579Z,25.32
2019-02-02T18:16:58.897Z,23.52
2019-02-02T18:19:28.480Z,23.75
2019-02-02T18:21:56.858Z,21.57
2019-02-02T18:24:28.162Z,24.92
2019-02-02T18:26:59.529Z,20.60
2019-02-02T18:29:28.144Z,21.73
2019-02-02T18:31:56.826Z,22.62
2019-02-02T18:34:27.206Z,25.55
2019-02-02T18:43:22.323Z,23.50
2019-02-02T18:49:03.260Z,25.55
2019-02-02T18:51:36.288Z,24.63
2019-02-02T18:54:09.625Z,29.60
2019-02-02T18:56:40.232Z,26.73
2019-02-02T18:59:08.193Z,26.57
2019-02-02T19:01:36.841Z,23.87
2019-02-02T19:04:07.159Z,27.70
2019-02-02T19:07:23.732Z,26.17
2019-02-02T19:09:53.835Z,26.85
2019-02-02T19:12:52.189Z,24.18
2019-02-02T19:15:23.638Z,24.60
2019-02-02T19:17:52.200Z,27.60
2019-02-02T19:21:17.038Z,33.88
2019-02-02T19:23:49.145Z,29.95
2019-02-02T19:26:48.697Z,36.30
2019-02-02T19:29:19.655Z,48.98
2019-02-02T19:34:48.208Z,39.83
2019-02-02T19:37:21.171Z,41.75
2019-02-02T19:40:12.331Z,44.65
2019-02-02T19:42:46.810Z,42.73
2019-02-02T19:48:38.425Z,45.30
2019-02-02T19:51:10.870Z,39.63
2019-02-02T19:53:40.239Z,41.83
2019-02-02T19:56:17.616Z,41.40
2019-02-02T20:01:51.860Z,42.27
2019-02-02T20:04:24.773Z,39.25
2019-02-02T20:07:29.949Z,33.25
2019-02-02T20:09:58.428Z,38.23
2019-02-02T20:12:27.139Z,34.05
2019-02-02T20:14:56.804Z,34.03
2019-02-02T20:17:33.940Z,33.85
2019-02-02T20:20:12.282Z,32.03
2019-02-02T20:22:45.219Z,34.13
2019-02-02T20:25:47.046Z,45.65
2019-02-02T20:28:15.633Z,43.08
2019-02-02T20:30:45.314Z,40.03
2019-02-02T20:33:49.840Z,34.53
2019-02-02T20:36:22.782Z,39.40
2019-02-02T20:38:51.297Z,35.43
2019-02-02T20:41:26.835Z,31.33
2019-02-02T20:43:58.869Z,35.63
2019-02-02T20:49:36.883Z,29.52
2019-02-02T20:52:05.526Z,37.98
2019-02-02T20:57:47.480Z,39.05
2019-02-02T21:00:17.656Z,33.67
2019-02-02T21:02:54.879Z,38.30
2019-02-02T21:05:23.451Z,34.70
2019-02-02T21:08:27.778Z,33.83
2019-02-02T21:10:57.744Z,32.93
2019-02-02T21:13:31.803Z,33.85
2019-02-02T21:16:24.849Z,31.75
2019-02-02T21:18:55.537Z,33.02
2019-02-02T21:21:50.828Z,32.33
2019-02-02T21:24:23.441Z,30.82
2019-02-02T21:26:56.764Z,31.68
2019-02-02T21:30:13.918Z,36.05
2019-02-02T21:32:47.320Z,38.13
2019-02-02T21:36:08.099Z,41.83
2019-02-02T21:38:37.679Z,44.45
2019-02-02T21:43:56.931Z,45.88
2019-02-02T21:46:25.302Z,51.20
2019-02-02T21:48:55.684Z,51.58
2019-02-02T21:51:24.043Z,61.42
2019-02-02T21:53:55.412Z,63.28
2019-02-02T21:57:02.766Z,68.83
2019-02-02T21:59:32.793Z,104.97
2019-02-02T22:02:04.392Z,110.97
2019-02-02T22:04:44.060Z,99.65
2019-02-02T22:07:09.983Z,143.37
2019-02-02T22:09:38.432Z,136.03
2019-02-02T22:12:06.877Z,130.67
2019-02-02T22:14:40.606Z,103.55
2019-02-02T22:20:23.862Z,123.75
2019-02-02T22:22:55.467Z,176.53
2019-02-02T22:26:07.470Z,117.65
2019-02-02T22:28:35.870Z,118.00
2019-02-02T22:31:05.313Z,133.72
2019-02-02T22:33:36.768Z,143.75
2019-02-02T22:36:05.161Z,141.55
2019-02-02T22:38:36.622Z,102.30
2019-02-02T22:41:14.177Z,112.30
2019-02-02T22:43:42.518Z,168.20
2019-02-02T22:46:10.855Z,107.10
2019-02-02T22:48:39.881Z,129.47
2019-02-02T22:51:11.292Z,123.25
2019-02-02T22:54:30.889Z,135.43
2019-02-02T22:57:01.989Z,137.40
2019-02-02T22:59:32.346Z,97.20
2019-02-02T23:02:10.716Z,111.30
2019-02-02T23:04:44.161Z,118.95
2019-02-02T23:08:04.846Z,109.80
2019-02-02T23:10:37.607Z,113.10
2019-02-02T23:16:04.521Z,148.82
2019-02-02T23:18:36.645Z,141.50
2019-02-02T23:21:42.486Z,166.88
2019-02-02T23:24:19.365Z,131.52
2019-02-02T23:29:30.936Z,122.50
2019-02-02T23:32:05.588Z,129.05
2019-02-02T23:35:25.951Z,105.92
2019-02-02T23:37:59.966Z,105.58
2019-02-02T23:40:28.712Z,120.22
2019-02-02T23:43:03.251Z,151.35
2019-02-02T23:45:31.954Z,103.32
2019-02-02T23:50:59.413Z,127.75
2019-02-02T23:53:30.879Z,127.17
2019-02-02T23:55:59.598Z,132.25
2019-02-02T23:58:48.878Z,116.75
